KQVF

Manda Bay

Manda Bay, Kenya
METAR KQVF 160601Z AUTO 14012G20KT 080V230 9999 FEW020 SCT026 BKN031 BKN065 25/23 A3014 RMK AO2 SLPNO WND DATA ESTMD
Observed Flight Rules
Aug-16 @ 06:01 UTC (14 minutes ago) Visual Flight Rules
Wind Visibility Clouds
140° at 12 knots
 Gusting to 20 knots
10,000+ meters
  • Few at 2,000' AGL
  • Scattered at 2,600' AGL
  • Broken at 3,100' AGL
  • Broken at 6,500' AGL
Temperatures Readings
Current 25°C / 77°F
Dewpoint 23°C / 73°F
Humidity 89%
Altimeter 30.14" Hg
Pressure 1021 hPa
METAR KQVF 160601Z AUTO 14012G20KT 080V230 9999 FEW020 SCT026 BKN031 BKN065 25/23 A3014 RMK AO2 SLPNO WND DATA ESTMD
Observed Flight Rules
Aug-16 @ 06:01 UTC
(14 minutes ago)
VFR
Wind Visibility
140° at 12 knots
 Gusting to 20 knots
10,000+ meters
Clouds
  • Few at 2,000' AGL
  • Scattered at 2,600' AGL
  • Broken at 3,100' AGL
  • Broken at 6,500' AGL
Temperature Dewpoint
25°C / 77°F 23°C / 73°F
Humidity Altimeter Pressure
89% 30.14" Hg 1021 hPa